createdAt,value
2019-01-15T00:00:10.521Z,91.30
2019-01-15T00:02:34.383Z,91.20
2019-01-15T00:04:56.822Z,91.10
2019-01-15T00:07:20.326Z,91.00
2019-01-15T00:09:42.653Z,91.10
2019-01-15T00:12:08.003Z,91.20
2019-01-15T00:14:29.430Z,91.10
2019-01-15T00:16:51.627Z,91.20
2019-01-15T00:19:14.230Z,91.30
2019-01-15T00:21:36.133Z,91.20
2019-01-15T00:23:57.984Z,91.10
2019-01-15T00:26:20.610Z,91.10
2019-01-15T00:28:42.561Z,91.00
2019-01-15T00:31:06.126Z,90.90
2019-01-15T00:33:28.563Z,90.80
2019-01-15T00:35:53.840Z,91.00
2019-01-15T00:38:16.357Z,90.90
2019-01-15T00:40:38.731Z,91.00
2019-01-15T00:43:02.258Z,90.70
2019-01-15T00:45:24.617Z,90.70
2019-01-15T00:47:47.340Z,90.60
2019-01-15T00:50:16.850Z,90.50
2019-01-15T00:53:00.774Z,90.50
2019-01-15T00:55:22.978Z,90.50
2019-01-15T00:57:45.706Z,90.50
2019-01-15T01:00:13.758Z,90.50
2019-01-15T01:02:35.383Z,90.40
2019-01-15T01:04:58.864Z,90.40
2019-01-15T01:07:21.694Z,90.30
2019-01-15T01:09:44.256Z,90.30
2019-01-15T01:12:07.302Z,90.40
2019-01-15T01:14:28.987Z,90.40
2019-01-15T01:16:50.179Z,90.30
2019-01-15T01:19:11.483Z,90.20
2019-01-15T01:21:32.762Z,90.20
2019-01-15T01:23:53.989Z,90.20
2019-01-15T01:26:15.241Z,90.30
2019-01-15T01:28:36.687Z,90.20
2019-01-15T01:30:57.899Z,90.20
2019-01-15T01:33:19.099Z,90.20
2019-01-15T01:35:40.310Z,90.30
2019-01-15T01:38:01.522Z,90.00
2019-01-15T01:40:22.753Z,90.10
2019-01-15T01:42:43.969Z,90.20
2019-01-15T01:45:08.391Z,90.20
2019-01-15T01:47:29.574Z,90.00
2019-01-15T01:49:50.787Z,90.00
2019-01-15T01:52:11.982Z,90.00
2019-01-15T01:54:34.500Z,90.00
2019-01-15T01:56:55.702Z,90.10
2019-01-15T01:59:16.930Z,90.00
2019-01-15T02:01:38.179Z,90.10
2019-01-15T02:03:59.369Z,90.10
2019-01-15T02:06:20.581Z,90.10
2019-01-15T02:08:42.046Z,90.10
2019-01-15T02:11:03.253Z,90.20
2019-01-15T02:13:24.492Z,90.20
2019-01-15T02:15:45.710Z,90.20
2019-01-15T02:18:06.898Z,90.20
2019-01-15T02:20:28.109Z,90.20
2019-01-15T02:22:49.312Z,90.30
2019-01-15T02:25:10.543Z,90.30
2019-01-15T02:27:31.837Z,90.20
2019-01-15T02:29:53.059Z,90.20
2019-01-15T02:32:14.270Z,90.10
2019-01-15T02:34:35.481Z,90.00
2019-01-15T02:36:56.898Z,89.80
2019-01-15T02:39:18.089Z,90.00
2019-01-15T02:41:39.303Z,90.00
2019-01-15T02:44:00.513Z,90.00
2019-01-15T02:46:21.751Z,90.00
2019-01-15T02:48:42.951Z,90.10
2019-01-15T02:51:05.367Z,90.00
2019-01-15T02:53:26.685Z,90.10
2019-01-15T02:55:47.926Z,90.00
2019-01-15T02:58:09.128Z,90.00
2019-01-15T03:00:30.440Z,90.00
2019-01-15T03:02:51.649Z,90.10
2019-01-15T03:05:12.962Z,90.10
2019-01-15T03:07:34.175Z,90.20
2019-01-15T03:09:55.383Z,90.10
2019-01-15T03:12:16.593Z,90.20
2019-01-15T03:14:37.808Z,90.30
2019-01-15T03:16:59.037Z,90.30
2019-01-15T03:19:20.226Z,90.30
2019-01-15T03:21:41.449Z,90.30
2019-01-15T03:24:02.636Z,90.40
2019-01-15T03:26:23.878Z,90.40
2019-01-15T03:28:45.074Z,90.40
2019-01-15T03:31:06.296Z,90.50
2019-01-15T03:33:27.786Z,90.40
2019-01-15T03:35:49.008Z,90.50
2019-01-15T03:38:10.244Z,90.60
2019-01-15T03:40:31.477Z,90.60
2019-01-15T03:42:52.679Z,90.80
2019-01-15T03:45:13.887Z,90.90
2019-01-15T03:47:35.186Z,90.90
2019-01-15T03:49:56.401Z,91.00
2019-01-15T03:52:17.623Z,91.00
2019-01-15T03:54:38.821Z,91.30
2019-01-15T03:57:00.046Z,91.00
2019-01-15T03:59:21.234Z,91.00
2019-01-15T04:01:42.455Z,91.00
2019-01-15T04:04:04.668Z,91.10
2019-01-15T04:06:25.879Z,91.10
2019-01-15T04:08:47.190Z,91.10
2019-01-15T04:11:08.394Z,91.20
2019-01-15T04:13:29.605Z,91.20
2019-01-15T04:15:51.096Z,91.20
2019-01-15T04:18:12.302Z,91.20
2019-01-15T04:20:33.514Z,91.20
2019-01-15T04:22:54.721Z,91.30
2019-01-15T04:25:16.033Z,91.40
2019-01-15T04:27:37.245Z,91.30
2019-01-15T04:29:58.783Z,91.40
2019-01-15T04:32:20.085Z,91.50
2019-01-15T04:34:42.140Z,91.30
2019-01-15T04:37:03.481Z,91.40
2019-01-15T04:39:24.699Z,91.70
2019-01-15T04:41:45.929Z,91.30
2019-01-15T04:44:07.125Z,91.30
2019-01-15T04:46:28.335Z,91.30
2019-01-15T04:48:49.792Z,91.30
2019-01-15T04:51:11.000Z,91.30
2019-01-15T04:53:32.231Z,91.20
2019-01-15T04:55:53.491Z,91.20
2019-01-15T04:58:14.703Z,91.20
2019-01-15T05:00:35.897Z,91.10
2019-01-15T05:02:58.016Z,91.10
2019-01-15T05:05:19.301Z,91.20
2019-01-15T05:07:40.520Z,91.10
2019-01-15T05:10:02.917Z,91.00
2019-01-15T05:12:24.136Z,91.20
2019-01-15T05:14:45.347Z,91.00
2019-01-15T05:17:06.563Z,90.90
2019-01-15T05:19:28.044Z,91.00
2019-01-15T05:21:49.433Z,90.90
2019-01-15T05:24:10.758Z,90.80
2019-01-15T05:26:32.032Z,90.70
2019-01-15T05:28:53.402Z,90.80
2019-01-15T05:31:14.628Z,90.80
2019-01-15T05:33:36.025Z,90.80
2019-01-15T05:35:57.295Z,91.10
2019-01-15T05:38:18.509Z,90.80
2019-01-15T05:40:39.940Z,90.90
2019-01-15T05:43:01.141Z,90.90
2019-01-15T05:45:27.237Z,90.70
2019-01-15T05:47:49.647Z,90.30
2019-01-15T05:50:13.053Z,90.00
2019-01-15T05:52:34.531Z,90.10
2019-01-15T05:54:56.055Z,90.20
2019-01-15T05:57:17.307Z,90.30
2019-01-15T05:59:38.563Z,90.00
2019-01-15T06:01:59.855Z,89.90
2019-01-15T06:04:21.080Z,89.60
2019-01-15T06:06:42.317Z,89.60
2019-01-15T06:09:06.250Z,89.60
2019-01-15T06:11:27.447Z,89.70
2019-01-15T06:13:48.811Z,89.80
2019-01-15T06:16:10.015Z,90.00
2019-01-15T06:18:31.412Z,90.10
2019-01-15T06:20:52.689Z,89.40
2019-01-15T06:23:14.043Z,89.20
2019-01-15T06:25:35.574Z,89.30
2019-01-15T06:27:57.252Z,89.40
2019-01-15T06:30:20.921Z,89.20
2019-01-15T06:32:42.848Z,88.90
2019-01-15T06:35:04.424Z,89.10
2019-01-15T06:37:25.653Z,88.80
2019-01-15T06:39:46.917Z,88.50
2019-01-15T06:42:08.387Z,88.70
2019-01-15T06:44:29.816Z,88.50
2019-01-15T06:46:51.013Z,88.40
2019-01-15T06:49:12.321Z,88.30
2019-01-15T06:51:33.521Z,88.00
2019-01-15T06:53:54.767Z,88.20
2019-01-15T06:56:16.013Z,88.10
2019-01-15T06:58:37.443Z,88.00
2019-01-15T07:00:58.647Z,88.00
2019-01-15T07:03:21.753Z,88.00
2019-01-15T07:05:42.977Z,87.90
2019-01-15T07:08:04.507Z,88.40
2019-01-15T07:10:36.714Z,89.20
2019-01-15T07:12:58.153Z,88.50
2019-01-15T07:15:19.368Z,88.60
2019-01-15T07:17:40.568Z,88.30
2019-01-15T07:20:04.539Z,88.10
2019-01-15T07:22:25.732Z,88.20
2019-01-15T07:24:47.281Z,88.10
2019-01-15T07:27:08.500Z,88.20
2019-01-15T07:29:29.700Z,88.20
2019-01-15T07:31:50.949Z,88.40
2019-01-15T07:34:12.166Z,88.80
2019-01-15T07:36:33.371Z,88.60
2019-01-15T07:38:54.558Z,87.80
2019-01-15T07:41:15.778Z,87.80
2019-01-15T07:43:36.987Z,87.80
2019-01-15T07:45:58.232Z,87.60
2019-01-15T07:48:19.430Z,87.70
2019-01-15T07:50:40.655Z,87.90
2019-01-15T07:53:01.878Z,87.90
2019-01-15T07:55:23.090Z,87.80
2019-01-15T07:57:44.387Z,87.70
2019-01-15T08:00:09.419Z,87.70
2019-01-15T08:02:30.658Z,87.90
2019-01-15T08:04:52.272Z,87.80
2019-01-15T08:07:13.679Z,87.80
2019-01-15T08:09:34.888Z,87.90
2019-01-15T08:11:56.094Z,87.60
2019-01-15T08:14:17.408Z,87.00
2019-01-15T08:16:38.616Z,87.10
2019-01-15T08:18:59.837Z,87.30
2019-01-15T08:21:21.071Z,87.30
2019-01-15T08:23:42.468Z,87.20
2019-01-15T08:26:03.816Z,86.70
2019-01-15T08:28:25.029Z,86.50
2019-01-15T08:30:46.242Z,86.10
2019-01-15T08:33:07.452Z,85.80
2019-01-15T08:35:28.654Z,85.20
2019-01-15T08:37:49.847Z,84.30
2019-01-15T08:40:16.170Z,84.30
2019-01-15T08:42:37.589Z,84.30
2019-01-15T08:44:58.903Z,84.30
2019-01-15T08:47:21.402Z,84.60
2019-01-15T08:49:42.948Z,84.30
2019-01-15T08:52:04.158Z,84.40
2019-01-15T08:54:26.416Z,84.50
2019-01-15T08:56:47.734Z,84.00
2019-01-15T08:59:08.942Z,83.60
2019-01-15T09:01:30.147Z,83.70
2019-01-15T09:03:51.355Z,83.70
2019-01-15T09:06:12.649Z,83.90
2019-01-15T09:08:33.843Z,84.10
2019-01-15T09:10:55.029Z,83.30
2019-01-15T09:13:16.229Z,83.20
2019-01-15T09:15:37.445Z,82.50
2019-01-15T09:17:58.634Z,83.50
2019-01-15T09:20:20.849Z,83.70
2019-01-15T09:22:42.149Z,82.40
2019-01-15T09:25:04.839Z,82.30
2019-01-15T09:27:26.138Z,82.20
2019-01-15T09:29:47.550Z,82.30
2019-01-15T09:32:08.763Z,82.60
2019-01-15T09:34:29.958Z,81.60
2019-01-15T09:36:51.170Z,81.80
2019-01-15T09:39:12.395Z,81.70
2019-01-15T09:41:33.708Z,81.90
2019-01-15T09:43:55.139Z,81.70
2019-01-15T09:46:16.346Z,80.80
2019-01-15T09:48:38.042Z,81.80
2019-01-15T09:50:59.263Z,81.20
2019-01-15T09:53:20.455Z,81.50
2019-01-15T09:55:41.672Z,81.50
2019-01-15T09:58:03.291Z,81.60
2019-01-15T10:00:24.483Z,82.10
2019-01-15T10:02:45.724Z,82.10
2019-01-15T10:05:06.923Z,81.60
2019-01-15T10:07:28.121Z,81.80
2019-01-15T10:09:49.362Z,81.20
2019-01-15T10:12:10.620Z,81.20
2019-01-15T10:14:31.814Z,81.30
2019-01-15T10:16:53.139Z,81.50
2019-01-15T10:19:14.342Z,81.20
2019-01-15T10:21:35.542Z,80.70
2019-01-15T10:23:56.728Z,80.50
2019-01-15T10:26:17.951Z,79.80
2019-01-15T10:28:39.443Z,79.60
2019-01-15T10:31:19.460Z,79.60
2019-01-15T10:33:44.482Z,79.60
2019-01-15T10:36:05.476Z,78.60
2019-01-15T10:38:27.599Z,77.80
2019-01-15T10:40:49.677Z,77.90
2019-01-15T10:43:10.886Z,77.80
2019-01-15T10:45:32.064Z,77.60
2019-01-15T10:47:53.285Z,77.70
2019-01-15T10:50:14.496Z,77.30
2019-01-15T10:52:36.827Z,77.90
2019-01-15T10:54:58.039Z,77.40
2019-01-15T10:57:19.383Z,79.20
2019-01-15T10:59:40.623Z,77.80
2019-01-15T11:02:01.851Z,77.30
2019-01-15T11:04:23.058Z,76.70
2019-01-15T11:06:44.249Z,76.70
2019-01-15T11:09:07.251Z,77.10
2019-01-15T11:11:28.446Z,76.20
2019-01-15T11:13:49.665Z,76.50
2019-01-15T11:16:10.919Z,76.40
2019-01-15T11:18:32.129Z,76.40
2019-01-15T11:20:53.323Z,76.60
2019-01-15T11:23:14.535Z,76.30
2019-01-15T11:25:35.734Z,76.90
2019-01-15T11:27:56.977Z,76.50
2019-01-15T11:30:18.477Z,76.80
2019-01-15T11:32:40.752Z,76.70
2019-01-15T11:35:02.463Z,76.90
2019-01-15T11:37:24.025Z,76.60
2019-01-15T11:39:47.259Z,78.30
2019-01-15T11:42:10.349Z,77.90
2019-01-15T11:44:33.615Z,78.00
2019-01-15T11:47:04.129Z,77.40
2019-01-15T11:49:25.905Z,77.90
2019-01-15T11:51:47.096Z,77.50
2019-01-15T11:54:08.303Z,78.00
2019-01-15T11:56:29.525Z,77.20
2019-01-15T11:58:51.143Z,77.10
2019-01-15T12:01:14.385Z,76.80
2019-01-15T12:03:55.458Z,77.00
2019-01-15T12:06:21.674Z,77.00
2019-01-15T12:09:03.653Z,76.90
2019-01-15T12:11:42.974Z,76.80
2019-01-15T12:14:16.654Z,75.60
2019-01-15T12:16:43.162Z,76.30
2019-01-15T12:19:06.471Z,76.20
2019-01-15T12:21:32.089Z,76.80
2019-01-15T12:24:15.010Z,77.00
2019-01-15T12:26:44.525Z,77.00
2019-01-15T12:29:08.908Z,76.50
2019-01-15T12:31:32.244Z,77.00
2019-01-15T12:34:04.382Z,76.30
2019-01-15T12:36:30.958Z,76.60
2019-01-15T12:39:12.535Z,76.20
2019-01-15T12:41:38.435Z,75.00
2019-01-15T12:44:19.695Z,76.20
2019-01-15T12:46:50.616Z,76.10
2019-01-15T12:49:33.448Z,75.20
2019-01-15T12:52:16.295Z,75.60
2019-01-15T12:54:44.090Z,74.90
2019-01-15T12:57:29.547Z,75.30
2019-01-15T13:00:06.687Z,75.00
2019-01-15T13:02:32.192Z,74.90
2019-01-15T13:05:01.901Z,74.90
2019-01-15T13:07:45.481Z,75.10
2019-01-15T13:10:37.733Z,74.60
2019-01-15T13:13:04.253Z,74.80
2019-01-15T13:15:42.169Z,75.10
2019-01-15T13:18:26.710Z,74.50
2019-01-15T13:20:59.318Z,74.00
2019-01-15T13:23:30.222Z,74.00
2019-01-15T13:26:00.046Z,74.40
2019-01-15T13:28:31.091Z,74.20
2019-01-15T13:31:01.057Z,74.20
2019-01-15T13:33:27.316Z,74.20
2019-01-15T13:35:57.203Z,74.50
2019-01-15T13:38:27.431Z,74.90
2019-01-15T13:40:58.935Z,75.50
2019-01-15T13:43:28.768Z,74.60
2019-01-15T13:46:11.138Z,73.80
2019-01-15T13:48:40.833Z,74.20
2019-01-15T13:51:17.992Z,74.50
2019-01-15T13:53:47.888Z,74.20
2019-01-15T13:56:28.419Z,74.00
2019-01-15T13:59:01.047Z,74.90
2019-01-15T14:01:33.882Z,73.90
2019-01-15T14:04:14.931Z,74.30
2019-01-15T14:06:54.308Z,74.60
2019-01-15T14:09:21.095Z,74.60
2019-01-15T14:11:46.604Z,74.70
2019-01-15T14:14:25.581Z,75.00
2019-01-15T14:16:49.593Z,74.80
2019-01-15T14:19:16.194Z,75.30
2019-01-15T14:21:46.819Z,74.60
2019-01-15T14:24:25.579Z,75.30
2019-01-15T14:27:03.941Z,74.80
2019-01-15T14:29:45.531Z,75.10
2019-01-15T14:32:09.781Z,75.40
2019-01-15T14:34:37.997Z,75.10
2019-01-15T14:37:20.748Z,75.30
2019-01-15T14:39:54.329Z,75.60
2019-01-15T14:42:27.572Z,75.30
2019-01-15T14:45:08.011Z,75.80
2019-01-15T14:47:52.089Z,76.00
2019-01-15T14:50:17.917Z,75.70
2019-01-15T14:52:49.854Z,76.00
2019-01-15T14:55:26.763Z,76.30
2019-01-15T14:57:58.088Z,76.20
2019-01-15T15:00:29.173Z,76.50
2019-01-15T15:02:59.740Z,76.60
2019-01-15T15:05:26.790Z,76.90
2019-01-15T15:08:08.792Z,76.80
2019-01-15T15:10:35.946Z,76.80
2019-01-15T15:13:07.928Z,77.20
2019-01-15T15:15:49.816Z,77.10
2019-01-15T15:18:18.879Z,77.20
2019-01-15T15:20:50.931Z,78.20
2019-01-15T15:23:21.703Z,77.40
2019-01-15T15:26:21.574Z,77.60
2019-01-15T15:28:55.516Z,78.10
2019-01-15T15:31:35.855Z,78.30
2019-01-15T15:34:18.809Z,78.30
2019-01-15T15:36:59.791Z,78.10
2019-01-15T15:39:37.366Z,78.40
2019-01-15T15:42:00.705Z,78.80
2019-01-15T15:44:24.520Z,78.50
2019-01-15T15:47:04.986Z,78.50
2019-01-15T15:49:28.716Z,78.30
2019-01-15T15:51:52.580Z,78.30
2019-01-15T15:54:30.233Z,78.50
2019-01-15T15:56:54.903Z,78.70
2019-01-15T15:59:36.692Z,78.50
2019-01-15T16:04:57.628Z,78.40
2019-01-15T16:07:29.977Z,78.10
2019-01-15T16:10:11.075Z,78.20
2019-01-15T16:12:53.421Z,78.40
2019-01-15T16:15:30.384Z,78.50
2019-01-15T16:18:05.510Z,78.50
2019-01-15T16:20:31.684Z,78.90
2019-01-15T16:23:00.756Z,79.00
2019-01-15T16:25:26.622Z,78.80
2019-01-15T16:27:49.752Z,78.60
2019-01-15T16:30:21.838Z,78.90
2019-01-15T16:32:57.042Z,79.00
2019-01-15T16:35:22.938Z,79.00
2019-01-15T16:38:02.845Z,78.70
2019-01-15T16:40:31.966Z,78.90
2019-01-15T16:43:04.927Z,78.70
2019-01-15T16:45:34.045Z,79.00
2019-01-15T16:48:06.404Z,78.80
2019-01-15T16:50:29.506Z,79.00
2019-01-15T16:53:10.991Z,78.90
2019-01-15T16:55:37.082Z,78.90
2019-01-15T16:58:00.299Z,79.50
2019-01-15T17:00:23.419Z,78.70
2019-01-15T17:02:49.750Z,78.70
2019-01-15T17:05:12.942Z,78.70
2019-01-15T17:07:47.752Z,78.50
2019-01-15T17:10:10.861Z,78.70
2019-01-15T17:12:33.965Z,78.80
2019-01-15T17:15:13.763Z,78.50
2019-01-15T17:17:39.624Z,78.40
2019-01-15T17:20:02.727Z,78.70
2019-01-15T17:22:31.386Z,78.50
2019-01-15T17:25:12.871Z,78.40
2019-01-15T17:27:38.623Z,78.70
2019-01-15T17:30:07.845Z,78.80
2019-01-15T17:32:40.313Z,78.30
2019-01-15T17:35:06.474Z,78.40
2019-01-15T17:37:32.242Z,78.50
2019-01-15T17:40:01.148Z,77.90
2019-01-15T17:42:30.501Z,77.90
2019-01-15T17:45:08.638Z,77.80
2019-01-15T17:47:34.562Z,77.70
2019-01-15T17:50:09.711Z,78.20
2019-01-15T17:52:44.286Z,78.00
2019-01-15T17:55:19.556Z,77.90
2019-01-15T17:57:45.272Z,77.80
2019-01-15T18:00:23.696Z,77.60
2019-01-15T18:03:03.612Z,77.30
2019-01-15T18:05:29.486Z,77.60
2019-01-15T18:07:55.355Z,77.90
2019-01-15T18:10:31.220Z,77.60
2019-01-15T18:13:23.885Z,77.40
2019-01-15T18:15:46.990Z,77.60
2019-01-15T18:18:10.084Z,77.40
2019-01-15T18:20:36.218Z,76.80
2019-01-15T18:22:59.334Z,77.10
2019-01-15T18:25:31.403Z,76.70
2019-01-15T18:27:54.595Z,77.10
2019-01-15T18:30:20.364Z,76.80
2019-01-15T18:32:50.611Z,76.60
2019-01-15T18:35:16.359Z,76.80
2019-01-15T18:37:42.247Z,76.70
2019-01-15T18:40:27.503Z,76.30
2019-01-15T18:42:53.731Z,76.10
2019-01-15T18:45:29.347Z,76.00
2019-01-15T18:48:06.213Z,75.70
2019-01-15T18:50:45.910Z,75.80
2019-01-15T18:53:27.146Z,75.70
2019-01-15T18:56:02.604Z,75.40
2019-01-15T18:58:42.434Z,75.60
2019-01-15T19:01:14.160Z,76.20
2019-01-15T19:03:46.411Z,75.60
2019-01-15T19:06:15.590Z,75.50
2019-01-15T19:08:41.819Z,75.60
2019-01-15T19:11:10.726Z,75.70
2019-01-15T19:13:40.059Z,75.50
2019-01-15T19:16:08.954Z,75.50
2019-01-15T19:18:37.645Z,75.30
2019-01-15T19:21:03.290Z,75.40
2019-01-15T19:23:32.446Z,75.50
2019-01-15T19:26:10.948Z,74.70
2019-01-15T19:28:39.870Z,74.90
2019-01-15T19:31:21.122Z,74.80
2019-01-15T19:33:44.219Z,74.30
2019-01-15T19:36:13.466Z,74.10
2019-01-15T19:38:53.106Z,74.10
2019-01-15T19:41:31.223Z,74.50
2019-01-15T19:44:00.091Z,74.20
2019-01-15T19:46:39.925Z,73.50
2019-01-15T19:49:05.794Z,73.30
2019-01-15T19:51:38.554Z,73.20
2019-01-15T19:54:01.665Z,73.00
2019-01-15T19:56:24.795Z,72.80
2019-01-15T19:59:05.869Z,72.70
2019-01-15T20:01:38.155Z,71.50
2019-01-15T20:04:04.431Z,71.70
2019-01-15T20:06:27.827Z,71.20
2019-01-15T20:09:01.721Z,70.60
2019-01-15T20:11:43.583Z,70.70
2019-01-15T20:14:09.603Z,70.40
2019-01-15T20:16:56.587Z,70.50
2019-01-15T20:19:25.481Z,70.30
2019-01-15T20:21:48.699Z,69.90
2019-01-15T20:24:14.948Z,71.70
2019-01-15T20:26:47.378Z,70.20
2019-01-15T20:29:10.535Z,69.60
2019-01-15T20:31:39.994Z,69.90
2019-01-15T20:34:06.574Z,69.70
2019-01-15T20:36:42.030Z,69.80
2019-01-15T20:39:16.481Z,69.50
2019-01-15T20:41:45.478Z,69.60
2019-01-15T20:44:14.714Z,69.60
2019-01-15T20:46:44.439Z,69.00
2019-01-15T20:49:12.458Z,69.30
2019-01-15T20:51:52.311Z,69.70
2019-01-15T20:54:18.679Z,69.80
2019-01-15T20:56:41.818Z,69.10
2019-01-15T20:59:06.176Z,68.10
2019-01-15T21:01:33.093Z,68.30
2019-01-15T21:03:56.538Z,68.30
2019-01-15T21:06:36.667Z,68.10
2019-01-15T21:09:00.343Z,69.00
2019-01-15T21:11:32.959Z,69.10
2019-01-15T21:13:56.504Z,69.20
2019-01-15T21:16:28.513Z,68.10
2019-01-15T21:19:04.569Z,67.80
2019-01-15T21:21:40.075Z,67.90
2019-01-15T21:24:20.048Z,68.20
2019-01-15T21:26:46.570Z,69.00
2019-01-15T21:29:13.834Z,69.00
2019-01-15T21:31:56.963Z,69.30
2019-01-15T21:34:28.907Z,68.80
2019-01-15T21:36:55.294Z,69.40
2019-01-15T21:39:45.683Z,69.90
2019-01-15T21:42:18.154Z,69.80
2019-01-15T21:47:26.851Z,69.00
2019-01-15T21:50:05.091Z,68.40
2019-01-15T21:52:28.553Z,68.30
2019-01-15T21:55:06.841Z,68.90
2019-01-15T21:57:33.111Z,69.30
2019-01-15T21:59:56.217Z,69.60
2019-01-15T22:02:19.880Z,69.70
2019-01-15T22:04:52.099Z,69.20
2019-01-15T22:07:32.278Z,69.60
2019-01-15T22:10:12.882Z,69.80
2019-01-15T22:12:53.306Z,69.30
2019-01-15T22:15:35.135Z,68.90
2019-01-15T22:17:58.597Z,68.90
2019-01-15T22:20:24.511Z,68.40
2019-01-15T22:23:03.143Z,68.70
2019-01-15T22:25:29.755Z,68.50
2019-01-15T22:28:08.534Z,68.20
2019-01-15T22:30:33.228Z,68.10
2019-01-15T22:32:58.902Z,68.40
2019-01-15T22:35:25.142Z,68.40
2019-01-15T22:37:54.216Z,68.10
2019-01-15T22:43:11.225Z,68.50
2019-01-15T22:45:37.991Z,68.80
2019-01-15T22:48:21.046Z,68.80
2019-01-15T22:51:07.846Z,68.30
2019-01-15T22:53:34.084Z,67.80
2019-01-15T22:56:33.548Z,67.90
2019-01-15T22:59:05.550Z,67.90
2019-01-15T23:01:29.791Z,68.30
2019-01-15T23:03:55.741Z,68.80
2019-01-15T23:06:24.898Z,67.10
2019-01-15T23:08:47.995Z,67.50
2019-01-15T23:11:13.647Z,67.40
2019-01-15T23:13:39.647Z,67.40
2019-01-15T23:16:05.313Z,67.50
2019-01-15T23:18:43.707Z,68.30
2019-01-15T23:21:09.379Z,67.90
2019-01-15T23:23:41.863Z,67.90
2019-01-15T23:26:11.194Z,67.90
2019-01-15T23:28:42.027Z,67.80
2019-01-15T23:31:14.228Z,67.90
2019-01-15T23:33:49.648Z,67.90
2019-01-15T23:36:25.031Z,67.60
2019-01-15T23:38:48.130Z,67.40
2019-01-15T23:41:11.247Z,67.40
2019-01-15T23:43:51.146Z,67.50
2019-01-15T23:46:26.168Z,67.30
2019-01-15T23:48:58.227Z,67.00
2019-01-15T23:51:21.338Z,66.90
2019-01-15T23:53:44.521Z,66.90
2019-01-15T23:56:07.737Z,66.80
2019-01-15T23:58:34.870Z,66.90
